sensor_id;sensor_type;location;lat;lon;timestamp;pressure;altitude;pressure_sealevel;temperature;humidity
42511;BME280;28141;51.120;17.114;2023-07-31T00:00:27;101272.14;;;30.67;41.73
42511;BME280;28141;51.120;17.114;2023-07-31T00:03:41;101262.66;;;30.73;42.32
42511;BME280;28141;51.120;17.114;2023-07-31T00:07:21;101274.95;;;30.72;41.96
42511;BME280;28141;51.120;17.114;2023-07-31T00:10:34;101275.24;;;30.70;41.93
42511;BME280;28141;51.120;17.114;2023-07-31T00:13:48;101269.91;;;30.69;42.45
42511;BME280;28141;51.120;17.114;2023-07-31T00:17:03;101262.66;;;30.73;42.01
42511;BME280;28141;51.120;17.114;2023-07-31T00:20:44;101273.29;;;30.71;41.97
42511;BME280;28141;51.120;17.114;2023-07-31T00:23:58;101272.45;;;30.70;42.17
42511;BME280;28141;51.120;17.114;2023-07-31T00:27:12;101261.27;;;30.70;42.20
42511;BME280;28141;51.120;17.114;2023-07-31T00:30:25;101261.27;;;30.70;41.98
42511;BME280;28141;51.120;17.114;2023-07-31T00:34:06;101274.66;;;30.68;41.93
42511;BME280;28141;51.120;17.114;2023-07-31T00:37:21;101266.02;;;30.70;41.55
42511;BME280;28141;51.120;17.114;2023-07-31T00:40:35;101259.84;;;30.68;41.61
42511;BME280;28141;51.120;17.114;2023-07-31T00:43:50;101273.56;;;30.69;41.45
42511;BME280;28141;51.120;17.114;2023-07-31T00:47:30;101273.58;;;30.74;41.88
42511;BME280;28141;51.120;17.114;2023-07-31T00:50:44;101279.73;;;30.71;41.69
42511;BME280;28141;51.120;17.114;2023-07-31T00:53:59;101275.80;;;30.72;42.12
42511;BME280;28141;51.120;17.114;2023-07-31T00:57:14;101270.17;;;30.67;41.77
42511;BME280;28141;51.120;17.114;2023-07-31T01:00:54;101273.81;;;30.68;41.80
42511;BME280;28141;51.120;17.114;2023-07-31T01:04:08;101273.81;;;30.68;41.71
42511;BME280;28141;51.120;17.114;2023-07-31T01:07:33;101264.27;;;30.64;41.34
42511;BME280;28141;51.120;17.114;2023-07-31T01:14:40;101266.72;;;30.55;41.83
42511;BME280;28141;51.120;17.114;2023-07-31T01:17:54;101264.24;;;30.59;41.72
42511;BME280;28141;51.120;17.114;2023-07-31T01:28:40;101266.66;;;30.50;42.47
42511;BME280;28141;51.120;17.114;2023-07-31T01:32:01;101266.98;;;30.54;41.96
42511;BME280;28141;51.120;17.114;2023-07-31T01:35:44;101268.18;;;30.63;41.57
42511;BME280;28141;51.120;17.114;2023-07-31T01:39:00;101270.13;;;30.62;41.12
42511;BME280;28141;51.120;17.114;2023-07-31T01:42:14;101265.64;;;30.61;41.72
42511;BME280;28141;51.120;17.114;2023-07-31T01:45:28;101278.81;;;30.61;41.09
42511;BME280;28141;51.120;17.114;2023-07-31T01:49:08;101268.15;;;30.58;41.72
42511;BME280;28141;51.120;17.114;2023-07-31T01:52:22;101264.77;;;30.56;42.07
42511;BME280;28141;51.120;17.114;2023-07-31T01:55:36;101268.98;;;30.58;41.15
42511;BME280;28141;51.120;17.114;2023-07-31T01:58:50;101262.57;;;30.63;41.65
42511;BME280;28141;51.120;17.114;2023-07-31T02:02:28;101265.88;;;30.55;41.61
42511;BME280;28141;51.120;17.114;2023-07-31T02:05:49;101272.04;;;30.57;41.61
42511;BME280;28141;51.120;17.114;2023-07-31T02:09:03;101272.89;;;30.57;41.44
42511;BME280;28141;51.120;17.114;2023-07-31T02:12:17;101274.58;;;30.58;41.69
42511;BME280;28141;51.120;17.114;2023-07-31T02:15:57;101279.62;;;30.61;41.75
42511;BME280;28141;51.120;17.114;2023-07-31T02:19:11;101273.77;;;30.63;41.94
42511;BME280;28141;51.120;17.114;2023-07-31T02:22:25;101274.02;;;30.61;41.55
42511;BME280;28141;51.120;17.114;2023-07-31T02:25:39;101266.48;;;30.62;41.56
42511;BME280;28141;51.120;17.114;2023-07-31T02:29:18;101265.37;;;30.63;41.48
42511;BME280;28141;51.120;17.114;2023-07-31T02:32:33;101264.27;;;30.64;41.56
42511;BME280;28141;51.120;17.114;2023-07-31T02:35:47;101256.70;;;30.59;41.37
42511;BME280;28141;51.120;17.114;2023-07-31T02:39:01;101256.96;;;30.58;41.38
42511;BME280;28141;51.120;17.114;2023-07-31T02:42:41;101263.13;;;30.60;41.53
42511;BME280;28141;51.120;17.114;2023-07-31T02:45:55;101253.90;;;30.59;41.76
42511;BME280;28141;51.120;17.114;2023-07-31T02:49:09;101256.43;;;30.61;41.48
42511;BME280;28141;51.120;17.114;2023-07-31T02:52:22;101268.74;;;30.65;41.43
42511;BME280;28141;51.120;17.114;2023-07-31T02:56:03;101267.62;;;30.61;41.53
42511;BME280;28141;51.120;17.114;2023-07-31T02:59:17;101265.37;;;30.63;41.44
42511;BME280;28141;51.120;17.114;2023-07-31T03:02:32;101270.97;;;30.63;41.63
42511;BME280;28141;51.120;17.114;2023-07-31T03:05:47;101273.23;;;30.66;41.15
42511;BME280;28141;51.120;17.114;2023-07-31T03:09:27;101279.67;;;30.66;41.52
42511;BME280;28141;51.120;17.114;2023-07-31T03:12:41;101272.39;;;30.65;41.39
42511;BME280;28141;51.120;17.114;2023-07-31T03:15:55;101270.44;;;30.66;41.27
42511;BME280;28141;51.120;17.114;2023-07-31T03:19:09;101274.34;;;30.65;41.79
42511;BME280;28141;51.120;17.114;2023-07-31T03:22:49;101274.32;;;30.60;41.42
42511;BME280;28141;51.120;17.114;2023-07-31T03:26:07;101275.71;;;30.62;42.14
42511;BME280;28141;51.120;17.114;2023-07-31T03:29:21;101281.63;;;30.66;41.23
42511;BME280;28141;51.120;17.114;2023-07-31T03:32:35;101280.26;;;30.68;40.92
42511;BME280;28141;51.120;17.114;2023-07-31T03:36:15;101281.10;;;30.69;41.23
42511;BME280;28141;51.120;17.114;2023-07-31T03:39:29;101283.84;;;30.64;40.94
42511;BME280;28141;51.120;17.114;2023-07-31T03:42:43;101285.53;;;30.65;40.70
42511;BME280;28141;51.120;17.114;2023-07-31T03:45:57;101275.20;;;30.65;41.08
42511;BME280;28141;51.120;17.114;2023-07-31T03:49:38;101286.38;;;30.65;40.64
42511;BME280;28141;51.120;17.114;2023-07-31T03:52:52;101288.85;;;30.62;40.41
42511;BME280;28141;51.120;17.114;2023-07-31T03:56:06;101272.66;;;30.64;40.44
42511;BME280;28141;51.120;17.114;2023-07-31T03:59:20;101280.46;;;30.62;39.98
42511;BME280;28141;51.120;17.114;2023-07-31T04:02:59;101285.09;;;30.51;39.92
42511;BME280;28141;51.120;17.114;2023-07-31T04:06:13;101279.33;;;30.58;40.04
42511;BME280;28141;51.120;17.114;2023-07-31T04:09:31;101280.12;;;30.53;39.61
42511;BME280;28141;51.120;17.114;2023-07-31T04:12:45;101275.83;;;30.45;39.66
42511;BME280;28141;51.120;17.114;2023-07-31T04:16:25;101273.04;;;30.45;39.92
42511;BME280;28141;51.120;17.114;2023-07-31T04:19:39;101284.74;;;30.42;40.03
42511;BME280;28141;51.120;17.114;2023-07-31T04:22:52;101277.72;;;30.40;40.17
42511;BME280;28141;51.120;17.114;2023-07-31T04:26:06;101279.67;;;30.39;39.40
42511;BME280;28141;51.120;17.114;2023-07-31T04:29:47;101276.88;;;30.39;39.66
42511;BME280;28141;51.120;17.114;2023-07-31T04:33:01;101278.55;;;30.40;40.00
42511;BME280;28141;51.120;17.114;2023-07-31T04:36:15;101285.00;;;30.41;39.75
42511;BME280;28141;51.120;17.114;2023-07-31T04:39:29;101281.95;;;30.42;39.63
42511;BME280;28141;51.120;17.114;2023-07-31T04:43:08;101286.42;;;30.43;39.36
42511;BME280;28141;51.120;17.114;2023-07-31T04:46:22;101288.71;;;30.46;39.25
42511;BME280;28141;51.120;17.114;2023-07-31T04:49:36;101283.69;;;30.48;38.81
42511;BME280;28141;51.120;17.114;2023-07-31T04:52:50;101283.44;;;30.50;39.11
42511;BME280;28141;51.120;17.114;2023-07-31T04:56:30;101275.37;;;30.54;39.00
42511;BME280;28141;51.120;17.114;2023-07-31T04:59:43;101277.11;;;30.60;39.24
42511;BME280;28141;51.120;17.114;2023-07-31T05:02:57;101275.71;;;30.62;38.68
42511;BME280;28141;51.120;17.114;2023-07-31T05:06:11;101280.52;;;30.67;38.54
42511;BME280;28141;51.120;17.114;2023-07-31T05:09:54;101283.90;;;30.69;38.47
42511;BME280;28141;51.120;17.114;2023-07-31T05:13:08;101280.02;;;30.75;38.02
42511;BME280;28141;51.120;17.114;2023-07-31T05:16:22;101283.92;;;30.74;38.11
42511;BME280;28141;51.120;17.114;2023-07-31T05:19:36;101288.99;;;30.77;38.04
42511;BME280;28141;51.120;17.114;2023-07-31T05:23:17;101288.46;;;30.80;38.08
42511;BME280;28141;51.120;17.114;2023-07-31T05:26:31;101292.68;;;30.82;38.08
42511;BME280;28141;51.120;17.114;2023-07-31T05:29:44;101288.74;;;30.83;38.07
42511;BME280;28141;51.120;17.114;2023-07-31T05:32:59;101295.27;;;30.94;37.79
42511;BME280;28141;51.120;17.114;2023-07-31T05:36:39;101294.71;;;30.92;37.60
42511;BME280;28141;51.120;17.114;2023-07-31T05:39:52;101288.88;;;30.99;37.03
42511;BME280;28141;51.120;17.114;2023-07-31T05:43:06;101291.42;;;31.05;36.74
42511;BME280;28141;51.120;17.114;2023-07-31T05:46:22;101292.84;;;31.08;37.58
42511;BME280;28141;51.120;17.114;2023-07-31T05:50:02;101289.55;;;31.11;37.25
42511;BME280;28141;51.120;17.114;2023-07-31T05:53:16;101299.10;;;31.15;37.48
42511;BME280;28141;51.120;17.114;2023-07-31T05:56:30;101290.41;;;31.16;37.36
42511;BME280;28141;51.120;17.114;2023-07-31T05:59:46;101286.55;;;31.23;37.00
42511;BME280;28141;51.120;17.114;2023-07-31T06:03:26;101287.68;;;31.27;37.24
42511;BME280;28141;51.120;17.114;2023-07-31T06:06:40;101285.12;;;31.15;37.25
42511;BME280;28141;51.120;17.114;2023-07-31T06:09:54;101284.05;;;30.89;37.33
42511;BME280;28141;51.120;17.114;2023-07-31T06:13:10;101286.14;;;30.72;37.95
42511;BME280;28141;51.120;17.114;2023-07-31T06:16:50;101290.54;;;30.63;37.89
42511;BME280;28141;51.120;17.114;2023-07-31T06:20:06;101286.61;;;30.59;38.08
42511;BME280;28141;51.120;17.114;2023-07-31T06:23:20;101288.30;;;30.60;37.98
42511;BME280;28141;51.120;17.114;2023-07-31T06:26:34;101286.23;;;30.50;38.44
42511;BME280;28141;51.120;17.114;2023-07-31T06:30:14;101286.23;;;30.50;37.99
42511;BME280;28141;51.120;17.114;2023-07-31T06:33:28;101279.44;;;30.14;37.61
42511;BME280;28141;51.120;17.114;2023-07-31T06:36:42;101285.54;;;30.11;37.87
42511;BME280;28141;51.120;17.114;2023-07-31T06:39:56;101277.38;;;30.04;37.89
42511;BME280;28141;51.120;17.114;2023-07-31T06:43:36;101285.81;;;29.88;38.57
42511;BME280;28141;51.120;17.114;2023-07-31T06:46:51;101282.30;;;29.75;39.13
42511;BME280;28141;51.120;17.114;2023-07-31T06:50:05;101284.08;;;30.03;39.02
42511;BME280;28141;51.120;17.114;2023-07-31T06:53:19;101287.63;;;29.77;38.29
42511;BME280;28141;51.120;17.114;2023-07-31T06:56:59;101287.49;;;29.89;38.77
42511;BME280;28141;51.120;17.114;2023-07-31T07:00:14;101281.06;;;29.88;38.85
42511;BME280;28141;51.120;17.114;2023-07-31T07:03:27;101281.91;;;29.89;38.91
42511;BME280;28141;51.120;17.114;2023-07-31T07:06:41;101281.32;;;29.87;38.61
42511;BME280;28141;51.120;17.114;2023-07-31T07:10:21;101275.70;;;29.82;38.82
42511;BME280;28141;51.120;17.114;2023-07-31T07:13:35;101278.16;;;30.00;39.29
42511;BME280;28141;51.120;17.114;2023-07-31T07:16:52;101275.75;;;29.65;38.63
42511;BME280;28141;51.120;17.114;2023-07-31T07:20:07;101269.88;;;29.88;38.63
42511;BME280;28141;51.120;17.114;2023-07-31T07:23:21;101265.62;;;30.02;39.34
42511;BME280;28141;51.120;17.114;2023-07-31T07:27:01;101270.31;;;30.24;38.55
42511;BME280;28141;51.120;17.114;2023-07-31T07:30:15;101264.33;;;30.42;38.29
42511;BME280;28141;51.120;17.114;2023-07-31T07:33:30;101256.79;;;30.42;38.85
42511;BME280;28141;51.120;17.114;2023-07-31T07:36:44;101257.43;;;30.49;38.27
42511;BME280;28141;51.120;17.114;2023-07-31T07:40:25;101257.04;;;30.68;38.26
42511;BME280;28141;51.120;17.114;2023-07-31T07:43:39;101249.35;;;30.53;38.37
42511;BME280;28141;51.120;17.114;2023-07-31T07:46:53;101254.74;;;30.60;38.47
42511;BME280;28141;51.120;17.114;2023-07-31T07:50:07;101256.10;;;30.30;38.52
42511;BME280;28141;51.120;17.114;2023-07-31T07:53:48;101253.31;;;30.30;38.43
42511;BME280;28141;51.120;17.114;2023-07-31T07:57:02;101253.38;;;30.35;38.04
42511;BME280;28141;51.120;17.114;2023-07-31T08:00:16;101255.68;;;30.43;38.34
42511;BME280;28141;51.120;17.114;2023-07-31T08:03:31;101255.47;;;30.50;38.26
42511;BME280;28141;51.120;17.114;2023-07-31T08:07:11;101256.66;;;30.27;37.64
42511;BME280;28141;51.120;17.114;2023-07-31T08:11:41;101255.76;;;30.22;37.40
42511;BME280;28141;51.120;17.114;2023-07-31T08:14:54;101246.36;;;30.33;37.02
42511;BME280;28141;51.120;17.114;2023-07-31T08:18:09;101230.02;;;30.52;37.04
42511;BME280;28141;51.120;17.114;2023-07-31T08:21:24;101239.41;;;30.67;37.13
42511;BME280;28141;51.120;17.114;2023-07-31T08:25:05;101266.02;;;30.43;36.59
42511;BME280;28141;51.120;17.114;2023-07-31T08:28:20;101255.26;;;30.30;36.83
42511;BME280;28141;51.120;17.114;2023-07-31T08:31:34;101259.40;;;30.22;36.92
42511;BME280;28141;51.120;17.114;2023-07-31T08:34:48;101263.95;;;30.28;37.63
42511;BME280;28141;51.120;17.114;2023-07-31T08:38:31;101258.21;;;30.45;37.03
42511;BME280;28141;51.120;17.114;2023-07-31T08:41:45;101257.04;;;30.68;37.24
42511;BME280;28141;51.120;17.114;2023-07-31T08:44:59;101260.23;;;30.49;37.24
42511;BME280;28141;51.120;17.114;2023-07-31T08:48:15;101248.91;;;30.66;36.83
42511;BME280;28141;51.120;17.114;2023-07-31T08:51:56;101242.80;;;30.69;36.93
42511;BME280;28141;51.120;17.114;2023-07-31T08:55:11;101246.30;;;30.55;37.37
42511;BME280;28141;51.120;17.114;2023-07-31T08:58:27;101242.80;;;30.69;37.39
42511;BME280;28141;51.120;17.114;2023-07-31T09:01:48;101240.27;;;30.73;37.26
42511;BME280;28141;51.120;17.114;2023-07-31T09:05:30;101240.92;;;30.85;37.62
42511;BME280;28141;51.120;17.114;2023-07-31T09:08:44;101238.25;;;31.00;37.74
42511;BME280;28141;51.120;17.114;2023-07-31T09:11:59;101242.17;;;31.04;37.63
42511;BME280;28141;51.120;17.114;2023-07-31T09:15:13;101237.07;;;30.91;37.40
42511;BME280;28141;51.120;17.114;2023-07-31T09:18:54;101252.08;;;30.16;37.13
42511;BME280;28141;51.120;17.114;2023-07-31T09:22:10;101241.35;;;30.08;36.86
42511;BME280;28141;51.120;17.114;2023-07-31T09:25:26;101241.37;;;29.86;36.93
42511;BME280;28141;51.120;17.114;2023-07-31T09:28:40;101265.55;;;29.75;37.85
42511;BME280;28141;51.120;17.114;2023-07-31T09:32:25;101267.06;;;29.23;37.49
42511;BME280;28141;51.120;17.114;2023-07-31T09:35:39;101264.73;;;29.15;37.88
42511;BME280;28141;51.120;17.114;2023-07-31T09:38:54;101268.64;;;29.35;37.72
42511;BME280;28141;51.120;17.114;2023-07-31T09:42:08;101274.40;;;29.07;37.77
42511;BME280;28141;51.120;17.114;2023-07-31T09:45:48;101285.71;;;29.00;37.56
42511;BME280;28141;51.120;17.114;2023-07-31T09:49:10;101279.48;;;28.93;38.17
42511;BME280;28141;51.120;17.114;2023-07-31T09:52:26;101279.70;;;28.58;38.47
42511;BME280;28141;51.120;17.114;2023-07-31T09:55:42;101268.98;;;29.00;38.12
42511;BME280;28141;51.120;17.114;2023-07-31T09:59:23;101277.19;;;29.07;38.10
42511;BME280;28141;51.120;17.114;2023-07-31T10:02:37;101270.81;;;29.12;38.17
42511;BME280;28141;51.120;17.114;2023-07-31T10:05:53;101260.14;;;29.25;38.01
42511;BME280;28141;51.120;17.114;2023-07-31T10:09:11;101257.46;;;29.14;38.16
42511;BME280;28141;51.120;17.114;2023-07-31T10:12:27;101250.33;;;29.23;37.90
42511;BME280;28141;51.120;17.114;2023-07-31T10:16:08;101245.47;;;29.35;38.14
42511;BME280;28141;51.120;17.114;2023-07-31T10:19:23;101249.31;;;29.29;38.83
42511;BME280;28141;51.120;17.114;2023-07-31T10:22:38;101250.87;;;29.20;39.12
42511;BME280;28141;51.120;17.114;2023-07-31T10:25:53;101237.88;;;29.09;38.81
42511;BME280;28141;51.120;17.114;2023-07-31T10:29:35;101242.64;;;29.30;38.65
42511;BME280;28141;51.120;17.114;2023-07-31T10:32:50;101236.00;;;29.36;38.44
42511;BME280;28141;51.120;17.114;2023-07-31T10:36:14;101245.28;;;29.20;39.08
42511;BME280;28141;51.120;17.114;2023-07-31T10:39:36;101241.70;;;29.24;38.80
42511;BME280;28141;51.120;17.114;2023-07-31T10:43:24;101240.30;;;29.65;38.37
42511;BME280;28141;51.120;17.114;2023-07-31T10:46:40;101234.77;;;29.27;39.11
42511;BME280;28141;51.120;17.114;2023-07-31T10:53:45;101242.04;;;29.28;38.50
42511;BME280;28141;51.120;17.114;2023-07-31T10:56:58;101237.47;;;29.22;38.63
42511;BME280;28141;51.120;17.114;2023-07-31T11:00:19;101232.20;;;29.42;38.70
42511;BME280;28141;51.120;17.114;2023-07-31T11:03:43;101232.86;;;29.11;38.46
42511;BME280;28141;51.120;17.114;2023-07-31T11:07:24;101223.28;;;29.23;38.67
42511;BME280;28141;51.120;17.114;2023-07-31T11:10:46;101227.75;;;29.24;38.83
42511;BME280;28141;51.120;17.114;2023-07-31T11:14:00;101215.84;;;29.29;38.57
42511;BME280;28141;51.120;17.114;2023-07-31T11:17:14;101209.59;;;29.65;38.21
42511;BME280;28141;51.120;17.114;2023-07-31T11:20:56;101211.68;;;29.53;38.51
42511;BME280;28141;51.120;17.114;2023-07-31T11:24:12;101205.02;;;29.81;38.00
42511;BME280;28141;51.120;17.114;2023-07-31T11:27:28;101191.94;;;29.87;38.02
42511;BME280;28141;51.120;17.114;2023-07-31T11:30:43;101196.11;;;30.06;38.42
42511;BME280;28141;51.120;17.114;2023-07-31T11:34:24;101187.98;;;30.36;37.56
42511;BME280;28141;51.120;17.114;2023-07-31T11:37:42;101184.28;;;30.63;37.25
42511;BME280;28141;51.120;17.114;2023-07-31T11:41:00;101177.95;;;30.77;36.73
42511;BME280;28141;51.120;17.114;2023-07-31T11:44:15;101179.78;;;30.57;37.43
42511;BME280;28141;51.120;17.114;2023-07-31T11:47:56;101165.66;;;30.78;36.64
42511;BME280;28141;51.120;17.114;2023-07-31T11:51:12;101158.80;;;31.01;35.93
42511;BME280;28141;51.120;17.114;2023-07-31T11:54:27;101158.75;;;30.96;36.01
42511;BME280;28141;51.120;17.114;2023-07-31T11:57:43;101155.42;;;31.04;36.13
42511;BME280;28141;51.120;17.114;2023-07-31T12:01:25;101148.56;;;31.27;35.89
42511;BME280;28141;51.120;17.114;2023-07-31T12:04:41;101147.71;;;31.27;35.46
42511;BME280;28141;51.120;17.114;2023-07-31T12:07:56;101142.15;;;31.37;35.45
42511;BME280;28141;51.120;17.114;2023-07-31T12:11:11;101135.47;;;31.43;35.60
42511;BME280;28141;51.120;17.114;2023-07-31T12:14:52;101144.19;;;31.56;35.33
42511;BME280;28141;51.120;17.114;2023-07-31T12:18:14;101123.80;;;31.66;34.90
42511;BME280;28141;51.120;17.114;2023-07-31T12:21:29;101122.42;;;31.89;35.00
42511;BME280;28141;51.120;17.114;2023-07-31T12:24:44;101136.38;;;31.64;34.39
42511;BME280;28141;51.120;17.114;2023-07-31T12:28:24;101114.84;;;32.05;34.32
42511;BME280;28141;51.120;17.114;2023-07-31T12:31:41;101103.05;;;32.03;34.46
42511;BME280;28141;51.120;17.114;2023-07-31T12:34:59;101109.24;;;31.95;34.46
42511;BME280;28141;51.120;17.114;2023-07-31T12:38:15;101090.17;;;32.02;34.06
42511;BME280;28141;51.120;17.114;2023-07-31T12:41:55;101096.91;;;32.06;34.35
42511;BME280;28141;51.120;17.114;2023-07-31T12:45:09;101080.36;;;32.40;33.65
42511;BME280;28141;51.120;17.114;2023-07-31T12:48:23;101076.44;;;32.41;33.35
42511;BME280;28141;51.120;17.114;2023-07-31T12:51:37;101081.21;;;32.40;33.49
42511;BME280;28141;51.120;17.114;2023-07-31T12:54:51;101073.91;;;32.39;34.11
42511;BME280;28141;51.120;17.114;2023-07-31T12:58:31;101068.00;;;32.51;33.82
42511;BME280;28141;51.120;17.114;2023-07-31T13:01:45;101058.15;;;32.58;34.07
42511;BME280;28141;51.120;17.114;2023-07-31T13:04:59;101060.34;;;32.87;33.77
42511;BME280;28141;51.120;17.114;2023-07-31T13:08:13;101065.29;;;33.05;33.44
42511;BME280;28141;51.120;17.114;2023-07-31T13:11:30;101047.81;;;33.18;32.38
42511;BME280;28141;51.120;17.114;2023-07-31T13:15:12;101054.84;;;33.16;33.04
42511;BME280;28141;51.120;17.114;2023-07-31T13:18:26;101051.70;;;33.22;32.89
42511;BME280;28141;51.120;17.114;2023-07-31T13:21:40;101054.25;;;33.24;33.09
42511;BME280;28141;51.120;17.114;2023-07-31T13:24:54;101046.10;;;33.27;33.14
42511;BME280;28141;51.120;17.114;2023-07-31T13:28:37;101054.41;;;33.43;32.92
42511;BME280;28141;51.120;17.114;2023-07-31T13:31:52;101035.06;;;33.41;32.88
42511;BME280;28141;51.120;17.114;2023-07-31T13:35:07;101036.27;;;33.64;32.45
42511;BME280;28141;51.120;17.114;2023-07-31T13:38:22;101026.65;;;33.75;32.76
42511;BME280;28141;51.120;17.114;2023-07-31T13:42:06;101035.54;;;33.87;32.52
42511;BME280;28141;51.120;17.114;2023-07-31T13:45:22;101020.26;;;33.98;32.36
42511;BME280;28141;51.120;17.114;2023-07-31T13:48:36;101015.37;;;34.09;32.06
42511;BME280;28141;51.120;17.114;2023-07-31T13:51:50;101021.09;;;33.99;32.20
42511;BME280;28141;51.120;17.114;2023-07-31T13:55:33;101034.20;;;34.08;32.27
42511;BME280;28141;51.120;17.114;2023-07-31T13:58:47;101023.51;;;34.11;32.14
42511;BME280;28141;51.120;17.114;2023-07-31T14:02:02;101024.83;;;34.18;32.61
42511;BME280;28141;51.120;17.114;2023-07-31T14:05:16;101020.00;;;34.24;31.86
42511;BME280;28141;51.120;17.114;2023-07-31T14:08:55;101023.39;;;34.26;32.08
42511;BME280;28141;51.120;17.114;2023-07-31T14:12:09;101023.10;;;34.27;31.68
42511;BME280;28141;51.120;17.114;2023-07-31T14:15:23;101020.50;;;34.31;32.39
42511;BME280;28141;51.120;17.114;2023-07-31T14:18:37;101023.61;;;34.29;31.74
42511;BME280;28141;51.120;17.114;2023-07-31T14:22:15;101023.32;;;34.31;32.13
42511;BME280;28141;51.120;17.114;2023-07-31T14:25:29;101018.79;;;34.35;32.01
42511;BME280;28141;51.120;17.114;2023-07-31T14:28:43;101014.41;;;34.48;31.73
42511;BME280;28141;51.120;17.114;2023-07-31T14:31:57;101018.29;;;34.52;31.97
42511;BME280;28141;51.120;17.114;2023-07-31T14:35:35;101019.04;;;34.38;31.70
42511;BME280;28141;51.120;17.114;2023-07-31T14:38:49;101007.78;;;34.38;31.70
42511;BME280;28141;51.120;17.114;2023-07-31T14:42:04;101010.60;;;34.38;31.59
42511;BME280;28141;51.120;17.114;2023-07-31T14:45:18;101005.39;;;34.27;31.43
42511;BME280;28141;51.120;17.114;2023-07-31T14:48:58;101005.10;;;34.23;31.84
42511;BME280;28141;51.120;17.114;2023-07-31T14:52:12;101003.13;;;34.24;31.74
42511;BME280;28141;51.120;17.114;2023-07-31T14:55:26;101003.16;;;34.19;31.91
42511;BME280;28141;51.120;17.114;2023-07-31T14:58:40;100998.16;;;34.16;31.88
42511;BME280;28141;51.120;17.114;2023-07-31T15:02:19;100999.15;;;34.01;31.92
42511;BME280;28141;51.120;17.114;2023-07-31T15:05:33;100995.25;;;33.97;32.02
42511;BME280;28141;51.120;17.114;2023-07-31T15:08:47;100989.63;;;33.97;32.06
42511;BME280;28141;51.120;17.114;2023-07-31T15:12:01;100980.28;;;34.06;32.30
42511;BME280;28141;51.120;17.114;2023-07-31T15:15:45;100983.61;;;34.08;31.98
42511;BME280;28141;51.120;17.114;2023-07-31T15:18:59;100984.11;;;34.16;32.07
42511;BME280;28141;51.120;17.114;2023-07-31T15:22:13;100981.23;;;34.21;32.08
42511;BME280;28141;51.120;17.114;2023-07-31T15:25:27;100985.71;;;34.22;32.10
42511;BME280;28141;51.120;17.114;2023-07-31T15:29:06;100986.91;;;34.16;31.78
42511;BME280;28141;51.120;17.114;2023-07-31T15:32:29;100978.77;;;34.14;31.79
42511;BME280;28141;51.120;17.114;2023-07-31T15:35:44;100972.78;;;34.21;31.70
42511;BME280;28141;51.120;17.114;2023-07-31T15:39:23;100966.57;;;34.24;31.77
42511;BME280;28141;51.120;17.114;2023-07-31T15:42:37;100970.50;;;34.28;31.59
42511;BME280;28141;51.120;17.114;2023-07-31T15:45:54;100965.05;;;34.36;31.13
42511;BME280;28141;51.120;17.114;2023-07-31T15:49:08;100952.37;;;34.39;31.61
42511;BME280;28141;51.120;17.114;2023-07-31T15:52:47;100954.01;;;34.40;31.51
42511;BME280;28141;51.120;17.114;2023-07-31T15:56:00;100960.48;;;34.40;31.57
42511;BME280;28141;51.120;17.114;2023-07-31T15:59:14;100946.37;;;34.46;31.23
42511;BME280;28141;51.120;17.114;2023-07-31T16:02:28;100944.80;;;34.58;31.73
42511;BME280;28141;51.120;17.114;2023-07-31T16:06:07;100952.38;;;34.82;31.25
42511;BME280;28141;51.120;17.114;2023-07-31T16:09:21;100938.37;;;34.95;31.25
42511;BME280;28141;51.120;17.114;2023-07-31T16:12:35;100936.40;;;35.14;31.01
42511;BME280;28141;51.120;17.114;2023-07-31T16:15:48;100935.87;;;35.31;31.00
42511;BME280;28141;51.120;17.114;2023-07-31T16:19:27;100933.94;;;35.45;30.59
42511;BME280;28141;51.120;17.114;2023-07-31T16:22:41;100936.04;;;35.54;30.46
42511;BME280;28141;51.120;17.114;2023-07-31T16:25:55;100929.52;;;35.39;30.47
42511;BME280;28141;51.120;17.114;2023-07-31T16:29:09;100929.62;;;35.34;30.43
42511;BME280;28141;51.120;17.114;2023-07-31T16:32:48;100936.48;;;35.28;30.65
42511;BME280;28141;51.120;17.114;2023-07-31T16:36:03;100933.72;;;35.23;30.72
42511;BME280;28141;51.120;17.114;2023-07-31T16:39:17;100928.92;;;35.24;30.84
42511;BME280;28141;51.120;17.114;2023-07-31T16:42:31;100928.70;;;35.20;30.59
42511;BME280;28141;51.120;17.114;2023-07-31T16:46:10;100921.38;;;35.19;30.84
42511;BME280;28141;51.120;17.114;2023-07-31T16:49:24;100920.95;;;35.12;30.52
42511;BME280;28141;51.120;17.114;2023-07-31T16:52:38;100919.44;;;35.01;30.70
42511;BME280;28141;51.120;17.114;2023-07-31T16:55:57;100924.83;;;34.97;31.16
42511;BME280;28141;51.120;17.114;2023-07-31T16:59:37;100928.64;;;34.88;31.17
42511;BME280;28141;51.120;17.114;2023-07-31T17:02:51;100913.58;;;34.78;31.32
42511;BME280;28141;51.120;17.114;2023-07-31T17:06:05;100919.80;;;34.75;31.15
42511;BME280;28141;51.120;17.114;2023-07-31T17:09:19;100921.30;;;34.68;31.66
42511;BME280;28141;51.120;17.114;2023-07-31T17:12:58;100925.31;;;34.62;31.55
42511;BME280;28141;51.120;17.114;2023-07-31T17:16:11;100913.85;;;34.58;31.69
42511;BME280;28141;51.120;17.114;2023-07-31T17:19:25;100917.26;;;34.55;31.68
42511;BME280;28141;51.120;17.114;2023-07-31T17:22:39;100917.86;;;34.52;31.93
42511;BME280;28141;51.120;17.114;2023-07-31T17:26:18;100930.24;;;34.51;31.78
42511;BME280;28141;51.120;17.114;2023-07-31T17:29:32;100926.97;;;34.44;31.96
42511;BME280;28141;51.120;17.114;2023-07-31T17:32:45;100919.38;;;34.45;32.08